sensor_id;sensor_type;location;lat;lon;timestamp;temperature;humidity
418;DHT22;49;48.530;9.200;2022-08-06T00:02:22;25.40;35.60
418;DHT22;49;48.530;9.200;2022-08-06T00:04:51;25.40;34.50
418;DHT22;49;48.530;9.200;2022-08-06T00:07:18;25.70;32.50
418;DHT22;49;48.530;9.200;2022-08-06T00:09:45;25.70;33.00
418;DHT22;49;48.530;9.200;2022-08-06T00:12:12;25.50;33.10
418;DHT22;49;48.530;9.200;2022-08-06T00:14:39;25.50;32.00
418;DHT22;49;48.530;9.200;2022-08-06T00:17:06;25.50;33.40
418;DHT22;49;48.530;9.200;2022-08-06T00:19:33;25.20;34.40
418;DHT22;49;48.530;9.200;2022-08-06T00:22:01;25.20;32.30
418;DHT22;49;48.530;9.200;2022-08-06T00:24:28;24.90;32.50
418;DHT22;49;48.530;9.200;2022-08-06T00:26:55;25.00;35.60
418;DHT22;49;48.530;9.200;2022-08-06T00:29:22;25.40;34.60
418;DHT22;49;48.530;9.200;2022-08-06T00:31:49;25.70;30.30
418;DHT22;49;48.530;9.200;2022-08-06T00:34:15;25.60;32.60
418;DHT22;49;48.530;9.200;2022-08-06T00:36:42;25.80;29.90
418;DHT22;49;48.530;9.200;2022-08-06T00:39:10;25.60;32.20
418;DHT22;49;48.530;9.200;2022-08-06T00:41:37;25.40;30.60
418;DHT22;49;48.530;9.200;2022-08-06T00:44:04;25.20;30.50
418;DHT22;49;48.530;9.200;2022-08-06T00:46:31;24.20;32.50
418;DHT22;49;48.530;9.200;2022-08-06T00:48:58;23.30;35.20
418;DHT22;49;48.530;9.200;2022-08-06T00:51:25;23.30;35.80
418;DHT22;49;48.530;9.200;2022-08-06T00:53:52;23.60;35.30
418;DHT22;49;48.530;9.200;2022-08-06T00:56:21;23.60;35.00
418;DHT22;49;48.530;9.200;2022-08-06T00:58:48;23.00;36.00
418;DHT22;49;48.530;9.200;2022-08-06T01:01:15;22.80;36.80
418;DHT22;49;48.530;9.200;2022-08-06T01:03:41;22.60;37.40
418;DHT22;49;48.530;9.200;2022-08-06T01:06:08;22.60;38.30
418;DHT22;49;48.530;9.200;2022-08-06T01:08:35;22.70;37.90
418;DHT22;49;48.530;9.200;2022-08-06T01:11:02;22.80;36.60
418;DHT22;49;48.530;9.200;2022-08-06T01:13:31;22.30;36.30
418;DHT22;49;48.530;9.200;2022-08-06T01:16:05;21.90;39.40
418;DHT22;49;48.530;9.200;2022-08-06T01:18:40;21.90;39.70
418;DHT22;49;48.530;9.200;2022-08-06T01:21:18;22.00;43.30
418;DHT22;49;48.530;9.200;2022-08-06T01:24:08;21.40;39.60
418;DHT22;49;48.530;9.200;2022-08-06T01:26:43;21.70;45.10
418;DHT22;49;48.530;9.200;2022-08-06T01:29:20;21.90;38.50
418;DHT22;49;48.530;9.200;2022-08-06T01:31:51;22.00;38.60
418;DHT22;49;48.530;9.200;2022-08-06T01:34:23;22.00;35.90
418;DHT22;49;48.530;9.200;2022-08-06T01:36:55;21.90;35.40
418;DHT22;49;48.530;9.200;2022-08-06T01:39:26;21.90;35.30
418;DHT22;49;48.530;9.200;2022-08-06T01:41:54;22.20;34.50
418;DHT22;49;48.530;9.200;2022-08-06T01:44:28;22.20;34.60
418;DHT22;49;48.530;9.200;2022-08-06T01:46:58;22.00;34.50
418;DHT22;49;48.530;9.200;2022-08-06T01:49:29;22.10;34.80
418;DHT22;49;48.530;9.200;2022-08-06T01:51:59;22.10;35.80
418;DHT22;49;48.530;9.200;2022-08-06T01:54:27;22.00;35.00
418;DHT22;49;48.530;9.200;2022-08-06T01:56:56;22.20;35.30
418;DHT22;49;48.530;9.200;2022-08-06T01:59:30;22.40;32.70
418;DHT22;49;48.530;9.200;2022-08-06T02:01:59;22.40;33.70
418;DHT22;49;48.530;9.200;2022-08-06T02:04:30;22.50;33.90
418;DHT22;49;48.530;9.200;2022-08-06T02:06:58;22.70;34.40
418;DHT22;49;48.530;9.200;2022-08-06T02:09:27;22.70;33.50
418;DHT22;49;48.530;9.200;2022-08-06T02:11:56;22.90;33.10
418;DHT22;49;48.530;9.200;2022-08-06T02:14:29;23.00;33.50
418;DHT22;49;48.530;9.200;2022-08-06T02:16:58;23.40;32.90
418;DHT22;49;48.530;9.200;2022-08-06T02:19:26;23.40;34.20
418;DHT22;49;48.530;9.200;2022-08-06T02:21:56;23.80;32.80
418;DHT22;49;48.530;9.200;2022-08-06T02:24:24;23.90;32.30
418;DHT22;49;48.530;9.200;2022-08-06T02:26:54;23.60;31.40
418;DHT22;49;48.530;9.200;2022-08-06T02:29:23;22.80;32.30
418;DHT22;49;48.530;9.200;2022-08-06T02:31:51;22.50;35.30
418;DHT22;49;48.530;9.200;2022-08-06T02:34:20;22.70;34.90
418;DHT22;49;48.530;9.200;2022-08-06T02:36:52;22.90;32.50
418;DHT22;49;48.530;9.200;2022-08-06T02:39:24;22.70;32.30
418;DHT22;49;48.530;9.200;2022-08-06T02:42:00;22.30;33.00
418;DHT22;49;48.530;9.200;2022-08-06T02:44:36;22.20;33.20
418;DHT22;49;48.530;9.200;2022-08-06T02:47:09;22.20;32.70
418;DHT22;49;48.530;9.200;2022-08-06T02:49:40;22.40;33.60
418;DHT22;49;48.530;9.200;2022-08-06T02:52:16;22.20;36.10
418;DHT22;49;48.530;9.200;2022-08-06T02:54:48;22.30;32.70
418;DHT22;49;48.530;9.200;2022-08-06T02:57:21;22.20;32.70
418;DHT22;49;48.530;9.200;2022-08-06T02:59:52;22.00;32.60
418;DHT22;49;48.530;9.200;2022-08-06T03:02:23;21.90;33.00
418;DHT22;49;48.530;9.200;2022-08-06T03:04:52;22.10;32.70
418;DHT22;49;48.530;9.200;2022-08-06T03:07:20;22.30;31.90
418;DHT22;49;48.530;9.200;2022-08-06T03:09:50;22.00;32.00
418;DHT22;49;48.530;9.200;2022-08-06T03:12:18;22.40;32.00
418;DHT22;49;48.530;9.200;2022-08-06T03:14:48;22.60;30.70
418;DHT22;49;48.530;9.200;2022-08-06T03:17:16;22.70;32.30
418;DHT22;49;48.530;9.200;2022-08-06T03:19:46;22.70;30.80
418;DHT22;49;48.530;9.200;2022-08-06T03:22:15;21.90;33.20
418;DHT22;49;48.530;9.200;2022-08-06T03:24:43;21.20;34.60
418;DHT22;49;48.530;9.200;2022-08-06T03:27:12;21.30;36.00
418;DHT22;49;48.530;9.200;2022-08-06T03:29:42;22.10;35.80
418;DHT22;49;48.530;9.200;2022-08-06T03:32:10;22.90;31.00
418;DHT22;49;48.530;9.200;2022-08-06T03:34:38;23.10;30.50
418;DHT22;49;48.530;9.200;2022-08-06T03:37:08;22.70;33.00
418;DHT22;49;48.530;9.200;2022-08-06T03:39:37;22.50;30.90
418;DHT22;49;48.530;9.200;2022-08-06T03:42:05;22.20;31.80
418;DHT22;49;48.530;9.200;2022-08-06T03:44:32;21.70;33.50
418;DHT22;49;48.530;9.200;2022-08-06T03:47:03;21.70;33.60
418;DHT22;49;48.530;9.200;2022-08-06T03:49:41;21.70;33.20
418;DHT22;49;48.530;9.200;2022-08-06T03:52:15;21.80;32.50
418;DHT22;49;48.530;9.200;2022-08-06T03:54:46;21.90;32.60
418;DHT22;49;48.530;9.200;2022-08-06T03:57:17;21.80;34.50
418;DHT22;49;48.530;9.200;2022-08-06T03:59:47;22.00;37.20
418;DHT22;49;48.530;9.200;2022-08-06T04:02:17;22.10;31.70
418;DHT22;49;48.530;9.200;2022-08-06T04:04:45;22.00;32.30
418;DHT22;49;48.530;9.200;2022-08-06T04:07:14;22.20;31.80
418;DHT22;49;48.530;9.200;2022-08-06T04:09:42;22.00;31.60
418;DHT22;49;48.530;9.200;2022-08-06T04:12:11;22.10;32.40
418;DHT22;49;48.530;9.200;2022-08-06T04:14:38;21.80;33.70
418;DHT22;49;48.530;9.200;2022-08-06T04:17:06;21.80;33.20
418;DHT22;49;48.530;9.200;2022-08-06T04:19:34;21.80;33.40
418;DHT22;49;48.530;9.200;2022-08-06T04:22:01;21.40;33.60
418;DHT22;49;48.530;9.200;2022-08-06T04:24:30;21.70;33.80
418;DHT22;49;48.530;9.200;2022-08-06T04:26:58;22.10;33.40
418;DHT22;49;48.530;9.200;2022-08-06T04:29:25;22.20;32.10
418;DHT22;49;48.530;9.200;2022-08-06T04:31:53;22.50;37.00
418;DHT22;49;48.530;9.200;2022-08-06T04:34:23;22.60;31.70
418;DHT22;49;48.530;9.200;2022-08-06T04:36:51;22.30;31.90
418;DHT22;49;48.530;9.200;2022-08-06T04:39:20;22.10;32.20
418;DHT22;49;48.530;9.200;2022-08-06T04:41:49;22.00;33.00
418;DHT22;49;48.530;9.200;2022-08-06T04:44:16;21.50;36.30
418;DHT22;49;48.530;9.200;2022-08-06T04:46:44;21.40;34.40
418;DHT22;49;48.530;9.200;2022-08-06T04:49:14;21.10;35.70
418;DHT22;49;48.530;9.200;2022-08-06T04:51:41;21.20;37.30
418;DHT22;49;48.530;9.200;2022-08-06T04:54:11;21.20;38.30
418;DHT22;49;48.530;9.200;2022-08-06T04:56:38;21.10;36.50
418;DHT22;49;48.530;9.200;2022-08-06T04:59:06;21.30;35.60
418;DHT22;49;48.530;9.200;2022-08-06T05:01:33;21.60;34.60
418;DHT22;49;48.530;9.200;2022-08-06T05:04:00;21.50;34.60
418;DHT22;49;48.530;9.200;2022-08-06T05:06:35;21.20;35.20
418;DHT22;49;48.530;9.200;2022-08-06T05:09:09;21.40;35.20
418;DHT22;49;48.530;9.200;2022-08-06T05:11:40;21.00;35.90
418;DHT22;49;48.530;9.200;2022-08-06T05:14:13;20.80;36.50
418;DHT22;49;48.530;9.200;2022-08-06T05:16:44;21.10;38.10
418;DHT22;49;48.530;9.200;2022-08-06T05:19:16;20.90;37.30
418;DHT22;49;48.530;9.200;2022-08-06T05:21:45;20.90;36.60
418;DHT22;49;48.530;9.200;2022-08-06T05:24:13;20.80;36.70
418;DHT22;49;48.530;9.200;2022-08-06T05:26:40;21.00;37.00
418;DHT22;49;48.530;9.200;2022-08-06T05:29:09;21.30;35.80
418;DHT22;49;48.530;9.200;2022-08-06T05:31:37;21.30;35.20
418;DHT22;49;48.530;9.200;2022-08-06T05:34:09;21.20;36.30
418;DHT22;49;48.530;9.200;2022-08-06T05:36:36;21.10;36.20
418;DHT22;49;48.530;9.200;2022-08-06T05:39:03;20.90;36.60
418;DHT22;49;48.530;9.200;2022-08-06T05:41:30;21.00;37.80
418;DHT22;49;48.530;9.200;2022-08-06T05:44:00;20.70;37.80
418;DHT22;49;48.530;9.200;2022-08-06T05:46:31;20.90;37.70
418;DHT22;49;48.530;9.200;2022-08-06T05:49:04;20.60;38.20
418;DHT22;49;48.530;9.200;2022-08-06T05:51:43;21.00;38.90
418;DHT22;49;48.530;9.200;2022-08-06T05:54:20;20.60;41.50
418;DHT22;49;48.530;9.200;2022-08-06T05:56:51;20.60;39.10
418;DHT22;49;48.530;9.200;2022-08-06T05:59:24;20.80;38.00
418;DHT22;49;48.530;9.200;2022-08-06T06:01:55;21.20;37.70
418;DHT22;49;48.530;9.200;2022-08-06T06:04:23;21.00;38.10
418;DHT22;49;48.530;9.200;2022-08-06T06:06:51;20.80;37.90
418;DHT22;49;48.530;9.200;2022-08-06T06:09:18;20.70;37.90
418;DHT22;49;48.530;9.200;2022-08-06T06:11:45;20.60;39.00
418;DHT22;49;48.530;9.200;2022-08-06T06:14:27;20.60;38.50
418;DHT22;49;48.530;9.200;2022-08-06T06:17:10;20.50;39.20
418;DHT22;49;48.530;9.200;2022-08-06T06:19:49;20.70;39.30
418;DHT22;49;48.530;9.200;2022-08-06T06:22:21;21.10;37.90
418;DHT22;49;48.530;9.200;2022-08-06T06:24:54;21.00;37.60
418;DHT22;49;48.530;9.200;2022-08-06T06:27:27;21.00;38.40
418;DHT22;49;48.530;9.200;2022-08-06T06:29:59;21.00;38.50
418;DHT22;49;48.530;9.200;2022-08-06T06:32:37;21.20;38.30
418;DHT22;49;48.530;9.200;2022-08-06T06:35:14;21.70;36.80
418;DHT22;49;48.530;9.200;2022-08-06T06:37:49;21.60;36.80
418;DHT22;49;48.530;9.200;2022-08-06T06:40:25;21.50;37.00
418;DHT22;49;48.530;9.200;2022-08-06T06:43:00;21.60;37.30
418;DHT22;49;48.530;9.200;2022-08-06T06:45:34;21.50;36.80
418;DHT22;49;48.530;9.200;2022-08-06T06:48:08;21.60;37.60
418;DHT22;49;48.530;9.200;2022-08-06T06:50:41;21.50;36.90
418;DHT22;49;48.530;9.200;2022-08-06T06:53:11;22.00;36.50
418;DHT22;49;48.530;9.200;2022-08-06T06:55:42;22.30;35.50
418;DHT22;49;48.530;9.200;2022-08-06T06:58:12;21.80;38.20
418;DHT22;49;48.530;9.200;2022-08-06T07:00:41;21.50;36.80
418;DHT22;49;48.530;9.200;2022-08-06T07:03:10;22.00;36.10
418;DHT22;49;48.530;9.200;2022-08-06T07:05:40;21.60;37.80
418;DHT22;49;48.530;9.200;2022-08-06T07:08:11;21.70;37.70
418;DHT22;49;48.530;9.200;2022-08-06T07:10:40;21.80;35.90
418;DHT22;49;48.530;9.200;2022-08-06T07:13:10;22.10;37.40
418;DHT22;49;48.530;9.200;2022-08-06T07:15:38;21.50;36.50
418;DHT22;49;48.530;9.200;2022-08-06T07:18:07;21.40;38.00
418;DHT22;49;48.530;9.200;2022-08-06T07:20:36;22.10;36.40
418;DHT22;49;48.530;9.200;2022-08-06T07:23:06;23.20;33.80
418;DHT22;49;48.530;9.200;2022-08-06T07:25:36;24.20;31.50
418;DHT22;49;48.530;9.200;2022-08-06T07:28:04;25.60;29.00
418;DHT22;49;48.530;9.200;2022-08-06T07:30:32;25.40;27.70
418;DHT22;49;48.530;9.200;2022-08-06T07:32:59;24.80;28.60
418;DHT22;49;48.530;9.200;2022-08-06T07:35:26;25.30;28.40
418;DHT22;49;48.530;9.200;2022-08-06T07:37:57;25.90;27.40
418;DHT22;49;48.530;9.200;2022-08-06T07:40:28;25.30;28.20
418;DHT22;49;48.530;9.200;2022-08-06T07:43:01;25.40;27.80
418;DHT22;49;48.530;9.200;2022-08-06T07:45:31;25.20;28.00
418;DHT22;49;48.530;9.200;2022-08-06T07:48:04;24.70;27.30
418;DHT22;49;48.530;9.200;2022-08-06T07:50:32;24.70;28.80
418;DHT22;49;48.530;9.200;2022-08-06T07:53:01;24.70;28.80
418;DHT22;49;48.530;9.200;2022-08-06T07:55:28;24.40;29.60
418;DHT22;49;48.530;9.200;2022-08-06T07:57:56;23.40;31.80
418;DHT22;49;48.530;9.200;2022-08-06T08:00:25;22.80;33.10
418;DHT22;49;48.530;9.200;2022-08-06T08:02:52;22.50;33.60
418;DHT22;49;48.530;9.200;2022-08-06T08:05:38;22.50;34.30
418;DHT22;49;48.530;9.200;2022-08-06T08:08:24;22.80;33.70
418;DHT22;49;48.530;9.200;2022-08-06T08:10:53;23.40;32.30
418;DHT22;49;48.530;9.200;2022-08-06T08:13:21;23.20;32.70
418;DHT22;49;48.530;9.200;2022-08-06T08:15:49;23.40;32.50
418;DHT22;49;48.530;9.200;2022-08-06T08:18:16;23.90;32.60
418;DHT22;49;48.530;9.200;2022-08-06T08:20:44;24.70;29.30
418;DHT22;49;48.530;9.200;2022-08-06T08:23:13;25.60;28.40
418;DHT22;49;48.530;9.200;2022-08-06T08:25:42;25.60;27.80
418;DHT22;49;48.530;9.200;2022-08-06T08:28:10;25.20;27.60
418;DHT22;49;48.530;9.200;2022-08-06T08:30:37;25.00;27.90
418;DHT22;49;48.530;9.200;2022-08-06T08:33:05;24.40;29.00
418;DHT22;49;48.530;9.200;2022-08-06T08:35:32;24.20;29.90
418;DHT22;49;48.530;9.200;2022-08-06T08:37:58;24.10;30.00
418;DHT22;49;48.530;9.200;2022-08-06T08:40:26;23.70;29.70
418;DHT22;49;48.530;9.200;2022-08-06T08:42:58;23.00;32.50
418;DHT22;49;48.530;9.200;2022-08-06T08:45:28;23.10;32.60
418;DHT22;49;48.530;9.200;2022-08-06T08:47:57;23.10;33.30
418;DHT22;49;48.530;9.200;2022-08-06T08:50:28;23.80;31.30
418;DHT22;49;48.530;9.200;2022-08-06T08:52:59;24.40;30.70
418;DHT22;49;48.530;9.200;2022-08-06T08:55:27;25.00;29.20
418;DHT22;49;48.530;9.200;2022-08-06T08:57:56;25.80;28.00
418;DHT22;49;48.530;9.200;2022-08-06T09:00:23;25.90;26.70
418;DHT22;49;48.530;9.200;2022-08-06T09:02:51;25.20;27.70
418;DHT22;49;48.530;9.200;2022-08-06T09:05:18;24.40;28.50
418;DHT22;49;48.530;9.200;2022-08-06T09:07:46;24.20;29.30
418;DHT22;49;48.530;9.200;2022-08-06T09:10:13;23.90;32.20
418;DHT22;49;48.530;9.200;2022-08-06T09:12:40;23.90;30.60
418;DHT22;49;48.530;9.200;2022-08-06T09:15:10;24.00;30.50
418;DHT22;49;48.530;9.200;2022-08-06T09:17:37;24.60;28.40
418;DHT22;49;48.530;9.200;2022-08-06T09:20:05;23.80;29.60
418;DHT22;49;48.530;9.200;2022-08-06T09:22:32;23.50;30.10
418;DHT22;49;48.530;9.200;2022-08-06T09:24:58;24.20;31.20
418;DHT22;49;48.530;9.200;2022-08-06T09:27:33;24.60;29.30
418;DHT22;49;48.530;9.200;2022-08-06T09:30:03;25.00;29.10
418;DHT22;49;48.530;9.200;2022-08-06T09:32:40;24.40;28.00
418;DHT22;49;48.530;9.200;2022-08-06T09:35:18;24.10;29.80
418;DHT22;49;48.530;9.200;2022-08-06T09:37:46;24.60;28.80
418;DHT22;49;48.530;9.200;2022-08-06T09:40:14;25.10;28.60
418;DHT22;49;48.530;9.200;2022-08-06T09:42:43;25.30;27.70
418;DHT22;49;48.530;9.200;2022-08-06T09:45:11;25.80;27.40
418;DHT22;49;48.530;9.200;2022-08-06T09:47:40;26.40;25.40
418;DHT22;49;48.530;9.200;2022-08-06T09:50:08;25.30;27.70
418;DHT22;49;48.530;9.200;2022-08-06T09:52:36;25.60;27.80
418;DHT22;49;48.530;9.200;2022-08-06T09:55:03;25.60;25.30
418;DHT22;49;48.530;9.200;2022-08-06T09:57:42;25.60;25.80
418;DHT22;49;48.530;9.200;2022-08-06T10:00:10;26.10;26.30
418;DHT22;49;48.530;9.200;2022-08-06T10:02:37;25.70;25.30
418;DHT22;49;48.530;9.200;2022-08-06T10:05:11;25.60;26.30
418;DHT22;49;48.530;9.200;2022-08-06T10:07:38;25.80;26.90
418;DHT22;49;48.530;9.200;2022-08-06T10:10:06;25.90;26.50
418;DHT22;49;48.530;9.200;2022-08-06T10:12:34;26.40;25.40
418;DHT22;49;48.530;9.200;2022-08-06T10:15:00;26.70;24.10
418;DHT22;49;48.530;9.200;2022-08-06T10:17:27;27.00;24.90
418;DHT22;49;48.530;9.200;2022-08-06T10:20:06;27.10;22.20
418;DHT22;49;48.530;9.200;2022-08-06T10:22:35;27.30;22.70
418;DHT22;49;48.530;9.200;2022-08-06T10:25:03;26.90;23.10
418;DHT22;49;48.530;9.200;2022-08-06T10:27:33;26.10;25.10
418;DHT22;49;48.530;9.200;2022-08-06T10:30:03;26.30;24.60
418;DHT22;49;48.530;9.200;2022-08-06T10:32:36;26.80;23.30
418;DHT22;49;48.530;9.200;2022-08-06T10:35:05;27.00;23.40
418;DHT22;49;48.530;9.200;2022-08-06T10:37:37;26.70;22.40
418;DHT22;49;48.530;9.200;2022-08-06T10:40:05;27.00;22.60
418;DHT22;49;48.530;9.200;2022-08-06T10:42:33;27.00;22.60
418;DHT22;49;48.530;9.200;2022-08-06T10:45:01;26.50;22.90
418;DHT22;49;48.530;9.200;2022-08-06T10:47:28;26.70;23.10
418;DHT22;49;48.530;9.200;2022-08-06T10:49:56;26.80;22.90
418;DHT22;49;48.530;9.200;2022-08-06T10:52:24;26.90;22.90
418;DHT22;49;48.530;9.200;2022-08-06T10:54:53;27.40;22.60
418;DHT22;49;48.530;9.200;2022-08-06T10:57:22;28.10;21.60
418;DHT22;49;48.530;9.200;2022-08-06T10:59:49;28.70;20.60
418;DHT22;49;48.530;9.200;2022-08-06T11:05:08;28.40;20.00
418;DHT22;49;48.530;9.200;2022-08-06T11:08:00;28.70;19.70
418;DHT22;49;48.530;9.200;2022-08-06T11:10:47;28.60;20.00
418;DHT22;49;48.530;9.200;2022-08-06T11:13:26;28.60;20.00
418;DHT22;49;48.530;9.200;2022-08-06T11:15:54;28.10;19.50
418;DHT22;49;48.530;9.200;2022-08-06T11:18:21;27.40;21.80
418;DHT22;49;48.530;9.200;2022-08-06T11:20:50;27.60;20.30
418;DHT22;49;48.530;9.200;2022-08-06T11:23:28;28.50;20.10
418;DHT22;49;48.530;9.200;2022-08-06T11:25:59;28.90;19.50
418;DHT22;49;48.530;9.200;2022-08-06T11:28:57;28.40;19.00
418;DHT22;49;48.530;9.200;2022-08-06T11:31:46;27.80;20.00
418;DHT22;49;48.530;9.200;2022-08-06T11:34:17;27.30;20.50
418;DHT22;49;48.530;9.200;2022-08-06T11:36:48;27.80;20.00
418;DHT22;49;48.530;9.200;2022-08-06T11:39:16;28.20;19.70
418;DHT22;49;48.530;9.200;2022-08-06T11:41:56;27.40;20.30
418;DHT22;49;48.530;9.200;2022-08-06T11:44:25;26.20;21.80
418;DHT22;49;48.530;9.200;2022-08-06T11:47:12;25.70;22.50
418;DHT22;49;48.530;9.200;2022-08-06T11:49:44;26.20;22.00
418;DHT22;49;48.530;9.200;2022-08-06T11:52:38;26.70;21.20
418;DHT22;49;48.530;9.200;2022-08-06T11:55:09;27.80;20.30
418;DHT22;49;48.530;9.200;2022-08-06T11:57:40;28.80;18.40
418;DHT22;49;48.530;9.200;2022-08-06T12:00:15;28.90;18.70
418;DHT22;49;48.530;9.200;2022-08-06T12:02:56;28.50;18.80
418;DHT22;49;48.530;9.200;2022-08-06T12:05:39;28.60;18.50
418;DHT22;49;48.530;9.200;2022-08-06T12:08:30;28.60;18.70
418;DHT22;49;48.530;9.200;2022-08-06T12:11:23;28.10;18.60
418;DHT22;49;48.530;9.200;2022-08-06T12:13:53;27.10;20.70
418;DHT22;49;48.530;9.200;2022-08-06T12:16:28;26.80;20.40
418;DHT22;49;48.530;9.200;2022-08-06T12:18:55;27.50;19.80
418;DHT22;49;48.530;9.200;2022-08-06T12:21:22;27.70;18.80
418;DHT22;49;48.530;9.200;2022-08-06T12:23:50;27.70;18.80
418;DHT22;49;48.530;9.200;2022-08-06T12:26:18;28.00;19.40
418;DHT22;49;48.530;9.200;2022-08-06T12:28:45;27.20;20.20
418;DHT22;49;48.530;9.200;2022-08-06T12:31:27;27.00;20.80
418;DHT22;49;48.530;9.200;2022-08-06T12:33:54;27.60;19.10
418;DHT22;49;48.530;9.200;2022-08-06T12:36:27;28.00;18.70
418;DHT22;49;48.530;9.200;2022-08-06T12:38:56;28.00;18.80
418;DHT22;49;48.530;9.200;2022-08-06T12:41:32;27.90;18.10
418;DHT22;49;48.530;9.200;2022-08-06T12:43:59;27.60;18.50
418;DHT22;49;48.530;9.200;2022-08-06T12:46:30;27.70;18.90
418;DHT22;49;48.530;9.200;2022-08-06T12:48:59;28.10;18.60
418;DHT22;49;48.530;9.200;2022-08-06T12:51:27;27.60;19.00
418;DHT22;49;48.530;9.200;2022-08-06T12:53:57;27.10;19.60
418;DHT22;49;48.530;9.200;2022-08-06T12:56:26;27.20;19.40
418;DHT22;49;48.530;9.200;2022-08-06T12:58:54;27.20;19.70
418;DHT22;49;48.530;9.200;2022-08-06T13:01:23;27.50;19.30
418;DHT22;49;48.530;9.200;2022-08-06T13:03:54;28.30;18.60
418;DHT22;49;48.530;9.200;2022-08-06T13:06:25;28.20;18.20
418;DHT22;49;48.530;9.200;2022-08-06T13:08:54;28.30;18.00
418;DHT22;49;48.530;9.200;2022-08-06T13:11:28;28.20;18.40
418;DHT22;49;48.530;9.200;2022-08-06T13:13:56;28.10;18.20
418;DHT22;49;48.530;9.200;2022-08-06T13:16:24;27.90;18.60
418;DHT22;49;48.530;9.200;2022-08-06T13:19:06;28.00;18.70
418;DHT22;49;48.530;9.200;2022-08-06T13:21:34;28.50;17.50
418;DHT22;49;48.530;9.200;2022-08-06T13:24:03;28.60;17.70
418;DHT22;49;48.530;9.200;2022-08-06T13:26:32;28.50;17.80
418;DHT22;49;48.530;9.200;2022-08-06T13:29:18;28.60;17.30
418;DHT22;49;48.530;9.200;2022-08-06T13:31:46;28.80;17.40
418;DHT22;49;48.530;9.200;2022-08-06T13:34:16;29.10;17.50
418;DHT22;49;48.530;9.200;2022-08-06T13:36:44;28.70;17.90
418;DHT22;49;48.530;9.200;2022-08-06T13:39:20;28.50;17.70
418;DHT22;49;48.530;9.200;2022-08-06T13:41:58;28.00;19.00
418;DHT22;49;48.530;9.200;2022-08-06T13:44:27;28.50;17.50
418;DHT22;49;48.530;9.200;2022-08-06T13:46:54;29.20;17.60
418;DHT22;49;48.530;9.200;2022-08-06T13:49:22;29.60;16.50
418;DHT22;49;48.530;9.200;2022-08-06T13:51:49;29.20;17.20
418;DHT22;49;48.530;9.200;2022-08-06T13:54:16;29.40;17.50
418;DHT22;49;48.530;9.200;2022-08-06T13:56:43;28.70;17.30
418;DHT22;49;48.530;9.200;2022-08-06T13:59:10;27.70;18.00
418;DHT22;49;48.530;9.200;2022-08-06T14:01:37;27.30;19.20
418;DHT22;49;48.530;9.200;2022-08-06T14:04:04;27.70;18.10
418;DHT22;49;48.530;9.200;2022-08-06T14:06:32;28.30;18.10
418;DHT22;49;48.530;9.200;2022-08-06T14:08:59;28.10;17.70
418;DHT22;49;48.530;9.200;2022-08-06T14:11:26;28.50;17.20
418;DHT22;49;48.530;9.200;2022-08-06T14:13:53;28.10;17.00
418;DHT22;49;48.530;9.200;2022-08-06T14:16:20;28.00;17.50
418;DHT22;49;48.530;9.200;2022-08-06T14:18:47;28.30;17.50
418;DHT22;49;48.530;9.200;2022-08-06T14:21:14;28.60;17.30
418;DHT22;49;48.530;9.200;2022-08-06T14:23:42;28.30;18.20
418;DHT22;49;48.530;9.200;2022-08-06T14:26:09;28.00;17.10
418;DHT22;49;48.530;9.200;2022-08-06T14:28:36;28.30;17.30
418;DHT22;49;48.530;9.200;2022-08-06T14:31:03;28.60;17.30
418;DHT22;49;48.530;9.200;2022-08-06T14:33:30;28.90;17.40
418;DHT22;49;48.530;9.200;2022-08-06T14:35:57;29.10;17.10
418;DHT22;49;48.530;9.200;2022-08-06T14:38:24;29.10;16.80
418;DHT22;49;48.530;9.200;2022-08-06T14:40:52;29.00;17.50
418;DHT22;49;48.530;9.200;2022-08-06T14:43:37;29.20;17.00
418;DHT22;49;48.530;9.200;2022-08-06T14:46:26;29.40;16.70
418;DHT22;49;48.530;9.200;2022-08-06T14:49:02;28.80;17.40
418;DHT22;49;48.530;9.200;2022-08-06T14:51:29;28.60;17.30
418;DHT22;49;48.530;9.200;2022-08-06T14:53:56;28.90;17.40
418;DHT22;49;48.530;9.200;2022-08-06T14:56:24;28.20;17.60
418;DHT22;49;48.530;9.200;2022-08-06T14:58:50;28.10;18.00
418;DHT22;49;48.530;9.200;2022-08-06T15:01:17;28.00;17.60
418;DHT22;49;48.530;9.200;2022-08-06T15:03:45;28.00;17.50
418;DHT22;49;48.530;9.200;2022-08-06T15:06:12;28.10;17.60
418;DHT22;49;48.530;9.200;2022-08-06T15:08:38;27.90;17.40
418;DHT22;49;48.530;9.200;2022-08-06T15:11:05;28.20;17.50
418;DHT22;49;48.530;9.200;2022-08-06T15:13:34;28.50;17.20
418;DHT22;49;48.530;9.200;2022-08-06T15:16:00;28.60;17.90
418;DHT22;49;48.530;9.200;2022-08-06T15:18:27;28.30;17.10
418;DHT22;49;48.530;9.200;2022-08-06T15:20:54;28.50;17.20
418;DHT22;49;48.530;9.200;2022-08-06T15:23:21;28.00;17.60
418;DHT22;49;48.530;9.200;2022-08-06T15:25:48;28.10;17.20
418;DHT22;49;48.530;9.200;2022-08-06T15:28:15;28.60;17.30
418;DHT22;49;48.530;9.200;2022-08-06T15:30:44;28.70;17.80
418;DHT22;49;48.530;9.200;2022-08-06T15:33:11;28.70;17.10
418;DHT22;49;48.530;9.200;2022-08-06T15:35:38;28.90;16.70
418;DHT22;49;48.530;9.200;2022-08-06T15:38:05;29.20;17.30
418;DHT22;49;48.530;9.200;2022-08-06T15:40:32;29.30;16.10
418;DHT22;49;48.530;9.200;2022-08-06T15:42:59;29.00;17.30
418;DHT22;49;48.530;9.200;2022-08-06T15:45:26;28.70;17.40
418;DHT22;49;48.530;9.200;2022-08-06T15:47:54;28.90;16.60
418;DHT22;49;48.530;9.200;2022-08-06T15:50:22;29.30;17.10
418;DHT22;49;48.530;9.200;2022-08-06T15:52:48;29.20;16.50
418;DHT22;49;48.530;9.200;2022-08-06T15:55:15;29.10;17.20
418;DHT22;49;48.530;9.200;2022-08-06T15:57:43;29.30;16.70
418;DHT22;49;48.530;9.200;2022-08-06T16:00:10;29.50;16.30
418;DHT22;49;48.530;9.200;2022-08-06T16:02:37;29.40;16.60
418;DHT22;49;48.530;9.200;2022-08-06T16:05:06;29.50;16.30
418;DHT22;49;48.530;9.200;2022-08-06T16:07:33;29.80;16.00
418;DHT22;49;48.530;9.200;2022-08-06T16:10:00;29.50;16.10
418;DHT22;49;48.530;9.200;2022-08-06T16:12:27;29.50;16.10
418;DHT22;49;48.530;9.200;2022-08-06T16:14:54;29.40;16.60
418;DHT22;49;48.530;9.200;2022-08-06T16:17:21;28.60;17.30
418;DHT22;49;48.530;9.200;2022-08-06T16:19:48;28.70;17.20
418;DHT22;49;48.530;9.200;2022-08-06T16:22:17;28.70;17.10
418;DHT22;49;48.530;9.200;2022-08-06T16:24:44;28.60;17.30
418;DHT22;49;48.530;9.200;2022-08-06T16:27:13;28.60;17.00
418;DHT22;49;48.530;9.200;2022-08-06T16:29:41;28.80;16.60
418;DHT22;49;48.530;9.200;2022-08-06T16:32:08;28.60;16.50
418;DHT22;49;48.530;9.200;2022-08-06T16:34:35;28.70;17.30
418;DHT22;49;48.530;9.200;2022-08-06T16:37:02;29.00;16.40
418;DHT22;49;48.530;9.200;2022-08-06T16:39:30;29.20;16.50
418;DHT22;49;48.530;9.200;2022-08-06T16:41:57;29.10;17.50
418;DHT22;49;48.530;9.200;2022-08-06T16:44:24;29.10;16.20
418;DHT22;49;48.530;9.200;2022-08-06T16:46:51;29.20;16.00
418;DHT22;49;48.530;9.200;2022-08-06T16:49:18;29.20;16.20
418;DHT22;49;48.530;9.200;2022-08-06T16:51:45;29.00;16.50
418;DHT22;49;48.530;9.200;2022-08-06T16:54:13;29.20;16.40
418;DHT22;49;48.530;9.200;2022-08-06T16:56:41;29.10;16.00
418;DHT22;49;48.530;9.200;2022-08-06T16:59:08;29.20;16.20
418;DHT22;49;48.530;9.200;2022-08-06T17:01:35;29.40;15.90
418;DHT22;49;48.530;9.200;2022-08-06T17:04:05;29.50;16.70
418;DHT22;49;48.530;9.200;2022-08-06T17:06:32;29.40;16.20
418;DHT22;49;48.530;9.200;2022-08-06T17:09:02;29.30;16.40
418;DHT22;49;48.530;9.200;2022-08-06T17:11:29;29.00;16.60
418;DHT22;49;48.530;9.200;2022-08-06T17:13:58;28.70;17.20